Time;durP1;ratioP1;P1;durP2;ratioP2;P2;SDS_P1;SDS_P2;PMS_P1;PMS_P2;Temp;Humidity;BMP_temperature;BMP_pressure;BME280_temperature;BME280_humidity;BME280_pressure;Samples;Min_cycle;Max_cycle;Signal;HPM_P1;HPM_P2
2023/10/17 00:01:13;;;;;;;;;;;7.20;99.90;;;;;;5033708;28;20025;-65
2023/10/17 00:03:39;;;;;;;1999.90;999.90;;;7.20;99.90;;;;;;5031652;28;19920;-65
2023/10/17 00:06:06;;;;;;;1999.90;999.90;;;7.20;99.90;;;;;;5021214;28;20030;-65
2023/10/17 00:08:35;;;;;;;1999.90;999.90;;;7.20;99.90;;;;;;5034211;28;20033;-64
2023/10/17 00:11:17;;;;;;;1999.90;999.90;;;7.30;99.90;;;;;;5031799;28;20026;-65
2023/10/17 00:13:59;;;;;;;1999.90;999.90;;;7.20;99.90;;;;;;5031185;28;20321;-72
2023/10/17 00:16:27;;;;;;;1999.90;999.90;;;7.30;99.90;;;;;;5027631;28;20428;-65
2023/10/17 00:18:53;;;;;;;1999.90;999.90;;;7.30;99.90;;;;;;5021216;28;20056;-64
2023/10/17 00:21:27;;;;;;;1999.90;999.90;;;7.30;99.90;;;;;;5023930;28;20417;-65
2023/10/17 00:23:52;;;;;;;1999.90;999.90;;;7.40;99.90;;;;;;5020344;28;20295;-64
2023/10/17 00:26:19;;;;;;;1999.90;999.90;;;7.40;99.90;;;;;;5003421;28;20050;-64
2023/10/17 00:28:48;;;;;;;1999.90;999.90;;;7.40;99.90;;;;;;5022747;28;20032;-65
2023/10/17 00:31:14;;;;;;;1999.90;999.90;;;7.40;99.90;;;;;;5024381;28;20022;-65
2023/10/17 00:33:41;;;;;;;1999.90;999.90;;;7.40;99.90;;;;;;5022107;28;20029;-64
2023/10/17 00:36:14;;;;;;;;;;;7.50;99.90;;;;;;5022231;28;20017;-65
2023/10/17 00:38:43;;;;;;;1999.90;999.90;;;7.50;99.90;;;;;;5023304;28;20319;-65
2023/10/17 00:41:27;;;;;;;1999.90;999.90;;;7.50;99.90;;;;;;5019731;28;20032;-64
2023/10/17 00:43:53;;;;;;;1999.90;999.90;;;7.50;99.90;;;;;;5008353;28;20677;-64
2023/10/17 00:46:19;;;;;;;1999.90;999.90;;;7.50;99.90;;;;;;5018473;28;20029;-64
2023/10/17 00:48:48;;;;;;;1999.90;999.90;;;7.50;99.90;;;;;;5024366;28;20439;-65
2023/10/17 00:51:19;;;;;;;1999.90;999.90;;;7.50;99.90;;;;;;5024217;28;20535;-65
2023/10/17 00:53:46;;;;;;;1999.90;999.90;;;7.50;99.90;;;;;;5028854;28;20030;-64
2023/10/17 00:56:13;;;;;;;1999.90;999.90;;;7.50;99.90;;;;;;5024587;28;20037;-64
2023/10/17 00:58:42;;;;;;;1999.90;999.90;;;7.50;99.90;;;;;;5027901;28;20061;-65
2023/10/17 01:01:20;;;;;;;1999.90;999.90;;;7.60;99.90;;;;;;5021905;28;20049;-65
2023/10/17 01:03:47;;;;;;;1999.90;999.90;;;7.50;99.90;;;;;;5025474;28;20022;-65
2023/10/17 01:08:46;;;;;;;1999.90;999.90;;;7.50;99.90;;;;;;5029351;28;20032;-65
2023/10/17 01:11:21;;;;;;;1999.90;999.90;;;7.50;99.90;;;;;;5024524;28;20143;-65
2023/10/17 01:13:53;;;;;;;1999.90;999.90;;;7.60;99.90;;;;;;5028885;28;20030;-65
2023/10/17 01:16:25;;;;;;;1999.90;999.90;;;7.60;99.90;;;;;;5023096;28;20025;-64
2023/10/17 01:18:53;;;;;;;1999.90;999.90;;;7.60;99.90;;;;;;5028320;28;20026;-81
2023/10/17 01:21:20;;;;;;;1999.90;999.90;;;7.60;99.90;;;;;;5030382;28;20120;-65
2023/10/17 01:23:47;;;;;;;1999.90;999.90;;;7.60;99.90;;;;;;5024191;28;20068;-65
2023/10/17 01:26:14;;;;;;;1999.90;999.90;;;7.70;99.90;;;;;;5011001;28;20034;-65
2023/10/17 01:28:47;;;;;;;1999.90;999.90;;;7.60;99.90;;;;;;5025950;28;20436;-65
2023/10/17 01:31:22;;;;;;;1999.90;999.90;;;7.60;99.90;;;;;;5018441;28;20042;-65
2023/10/17 01:33:51;;;;;;;1999.90;999.90;;;7.60;99.90;;;;;;5025187;28;20109;-65
2023/10/17 01:36:17;;;;;;;1999.90;999.90;;;7.60;99.90;;;;;;5020103;28;20030;-64
2023/10/17 01:38:43;;;;;;;1999.90;999.90;;;7.60;99.90;;;;;;5034294;28;20183;-64
2023/10/17 01:41:15;;;;;;;1999.90;999.90;;;7.60;99.90;;;;;;5017136;28;20033;-65
2023/10/17 01:43:41;;;;;;;1999.90;999.90;;;7.60;99.90;;;;;;5039170;28;20033;-65
2023/10/17 01:46:14;;;;;;;1999.90;999.90;;;7.60;99.90;;;;;;5036454;28;20049;-64
2023/10/17 01:48:44;;;;;;;1999.90;999.90;;;7.60;99.90;;;;;;5036036;28;20053;-65
2023/10/17 01:51:12;;;;;;;1999.90;999.90;;;7.60;99.90;;;;;;5039144;28;20029;-65
2023/10/17 01:53:39;;;;;;;1999.90;999.90;;;7.60;99.90;;;;;;5039683;28;20033;-65
2023/10/17 01:56:14;;;;;;;1999.90;999.90;;;7.60;99.90;;;;;;5033937;28;20109;-82
2023/10/17 01:58:50;;;;;;;1999.90;999.90;;;7.60;99.90;;;;;;5026767;28;20021;-64
2023/10/17 02:01:29;;;;;;;1999.90;999.90;;;7.60;99.90;;;;;;5037410;28;20111;-64
2023/10/17 02:04:03;;;;;;;1999.90;999.90;;;7.60;99.90;;;;;;5040071;28;20040;-65
2023/10/17 02:06:31;;;;;;;1999.90;999.90;;;7.60;99.90;;;;;;5038322;28;20100;-83
2023/10/17 02:08:58;;;;;;;1999.90;999.90;;;7.50;99.90;;;;;;5036896;28;20022;-65
2023/10/17 02:11:25;;;;;;;1999.90;999.90;;;7.60;99.90;;;;;;5028119;28;20696;-65
2023/10/17 02:13:58;;;;;;;1999.90;999.90;;;7.60;99.90;;;;;;5040039;28;20033;-65
2023/10/17 02:16:28;;;;;;;1999.90;999.90;;;7.50;99.90;;;;;;5038243;28;20426;-66
2023/10/17 02:18:54;;;;;;;1999.90;999.90;;;7.50;99.90;;;;;;5032462;28;20032;-65
2023/10/17 02:21:23;;;;;;;1999.90;999.90;;;7.50;99.90;;;;;;5032827;28;20068;-65
2023/10/17 02:23:51;;;;;;;1999.90;999.90;;;7.50;99.90;;;;;;5039723;28;20100;-81
2023/10/17 02:26:21;;;;;;;1999.90;999.90;;;7.60;99.90;;;;;;5037933;28;20025;-65
2023/10/17 02:28:53;;;;;;;1999.90;999.90;;;7.50;99.90;;;;;;5032119;28;20148;-65
2023/10/17 02:31:27;;;;;;;1999.90;999.90;;;7.50;99.90;;;;;;5035637;28;20021;-82
2023/10/17 02:33:53;;;;;;;1999.90;999.90;;;7.50;99.90;;;;;;5023333;28;20044;-64
2023/10/17 02:36:19;;;;;;;1999.90;999.90;;;7.50;99.90;;;;;;5034407;28;20380;-65
2023/10/17 02:38:45;;;;;;;1999.90;999.90;;;7.50;99.90;;;;;;5033822;28;20030;-82
2023/10/17 02:41:28;;;;;;;1999.90;999.90;;;7.50;99.90;;;;;;5034062;28;20033;-65
2023/10/17 02:43:55;;;;;;;1999.90;999.90;;;7.50;99.90;;;;;;5032935;28;20036;-64
2023/10/17 02:46:27;;;;;;;1999.90;999.90;;;7.50;99.90;;;;;;5018263;28;20030;-64
2023/10/17 02:48:57;;;;;;;1999.90;999.90;;;7.50;99.90;;;;;;5018583;28;20050;-64
2023/10/17 02:53:53;;;;;;;1999.90;999.90;;;7.40;99.90;;;;;;5032713;28;20048;-65
2023/10/17 02:56:19;;;;;;;1999.90;999.90;;;7.50;99.90;;;;;;5033560;28;20341;-65
2023/10/17 02:58:50;;;;;;;1999.90;999.90;;;7.50;99.90;;;;;;5027386;28;20026;-65
2023/10/17 03:01:19;;;;;;;1999.90;999.90;;;7.50;99.90;;;;;;5017042;28;20034;-65
2023/10/17 03:03:51;;;;;;;1999.90;999.90;;;7.50;99.90;;;;;;5015111;28;20136;-66
2023/10/17 03:06:18;;;;;;;1999.90;999.90;;;7.50;99.90;;;;;;5027413;28;20018;-64
2023/10/17 03:08:51;;;;;;;1999.90;999.90;;;7.50;99.90;;;;;;5024289;28;20042;-64
2023/10/17 03:11:26;;;;;;;1999.90;999.90;;;7.50;99.90;;;;;;5034852;28;20029;-65
2023/10/17 03:13:53;;;;;;;1999.90;999.90;;;7.40;99.90;;;;;;5033609;28;20068;-65
2023/10/17 03:16:27;;;;;;;1999.90;999.90;;;7.40;99.90;;;;;;5030978;28;20026;-65
2023/10/17 03:18:57;;;;;;;1999.90;999.90;;;7.40;99.90;;;;;;5026710;28;20468;-65
2023/10/17 03:21:33;;;;;;;1999.90;999.90;;;7.40;99.90;;;;;;5025284;28;20287;-65
2023/10/17 03:24:01;;;;;;;1999.90;999.90;;;7.40;99.90;;;;;;5019795;28;20032;-65
2023/10/17 03:26:38;;;;;;;1999.90;999.90;;;7.50;99.90;;;;;;5034472;28;20367;-65
2023/10/17 03:29:13;;;;;;;1999.90;999.90;;;7.50;99.90;;;;;;5032364;28;20021;-65
2023/10/17 03:31:41;;;;;;;1999.90;999.90;;;7.50;99.90;;;;;;5006173;28;20026;-64
2023/10/17 03:34:11;;;;;;;1999.90;999.90;;;7.50;99.90;;;;;;5024803;28;20535;-65
2023/10/17 03:36:41;;;;;;;1999.90;999.90;;;7.60;99.90;;;;;;5034093;28;20038;-65
2023/10/17 03:41:58;;;;;;;1999.90;999.90;;;7.60;99.90;;;;;;5033950;28;20048;-64
2023/10/17 03:44:31;;;;;;;1999.90;999.90;;;7.50;99.90;;;;;;5034075;28;20381;-64
2023/10/17 03:47:03;;;;;;;1999.90;999.90;;;7.50;99.90;;;;;;5034272;28;20413;-65
2023/10/17 03:49:36;;;;;;;1999.90;999.90;;;7.50;99.90;;;;;;5032591;28;20128;-64
2023/10/17 03:52:04;;;;;;;1999.90;999.90;;;7.50;99.90;;;;;;5033072;28;20029;-64
2023/10/17 03:54:30;;;;;;;1999.90;999.90;;;7.50;99.90;;;;;;5030054;28;20022;-65
2023/10/17 03:56:56;;;;;;;1999.90;999.90;;;7.50;99.90;;;;;;5021625;28;20410;-64
2023/10/17 03:59:40;;;;;;;1999.90;999.90;;;7.50;99.90;;;;;;5041466;28;20363;-65
2023/10/17 04:02:18;;;;;;;1999.90;999.90;;;7.50;99.90;;;;;;5041429;28;20032;-65
2023/10/17 04:04:57;;;;;;;1999.90;999.90;;;7.60;99.90;;;;;;5051235;28;20082;-65
2023/10/17 04:07:26;;;;;;;1999.90;999.90;;;7.60;99.90;;;;;;5047409;28;20109;-65
2023/10/17 04:12:39;;;;;;;1999.90;999.90;;;7.60;99.90;;;;;;5051802;28;20017;-65
2023/10/17 04:15:09;;;;;;;1999.90;999.90;;;7.50;99.90;;;;;;5048711;28;20112;-65
2023/10/17 04:17:38;;;;;;;1999.90;999.90;;;7.40;99.90;;;;;;5053019;28;20028;-64
2023/10/17 04:20:16;;;;;;;1999.90;999.90;;;7.50;99.90;;;;;;5046425;28;20033;-64
2023/10/17 04:22:45;;;;;;;1999.90;999.90;;;7.50;99.90;;;;;;5038550;28;20047;-85
2023/10/17 04:25:31;;;;;;;1999.90;999.90;;;7.40;99.90;;;;;;5053311;28;20033;-65
2023/10/17 04:27:59;;;;;;;1999.90;999.90;;;7.40;99.90;;;;;;5047126;28;20438;-82
2023/10/17 04:30:46;;;;;;;1999.90;999.90;;;7.40;99.90;;;;;;5032539;28;20168;-65
2023/10/17 04:33:19;;;;;;;1999.90;999.90;;;7.40;99.90;;;;;;5055651;28;20035;-65
2023/10/17 04:35:53;;;;;;;1999.90;999.90;;;7.40;99.90;;;;;;5031551;28;20024;-65
2023/10/17 04:38:19;;;;;;;1999.90;999.90;;;7.40;99.90;;;;;;5049248;28;20348;-65
2023/10/17 04:43:48;;;;;;;1999.90;999.90;;;7.40;99.90;;;;;;5054855;28;20021;-65
2023/10/17 04:46:16;;;;;;;1999.90;999.90;;;7.40;99.90;;;;;;5048429;28;20021;-66
2023/10/17 04:48:52;;;;;;;1999.90;999.90;;;7.40;99.90;;;;;;5045491;28;20107;-65
2023/10/17 04:53:48;;;;;;;1999.90;999.90;;;7.30;99.90;;;;;;5034428;28;20037;-66
2023/10/17 04:56:19;;;;;;;1999.90;999.90;;;7.30;99.90;;;;;;5032991;28;20057;-65
2023/10/17 04:58:53;;;;;;;1999.90;999.90;;;7.30;99.90;;;;;;5023143;28;20032;-65
2023/10/17 05:04:47;;;;;;;1999.90;999.90;;;7.20;99.90;;;;;;4956484;28;20106;-65
2023/10/17 05:07:16;;;;;;;1999.90;999.90;;;7.30;99.90;;;;;;4956173;28;20058;-65
2023/10/17 06:18:17;;;;;;;1999.90;999.90;;;6.80;99.90;;;;;;5034396;28;20036;-65
2023/10/17 06:21:01;;;;;;;1999.90;999.90;;;6.70;99.90;;;;;;5035856;28;20167;-65
2023/10/17 06:31:57;;;;;;;1999.90;999.90;;;6.80;99.90;;;;;;5030859;28;20091;-65
2023/10/17 06:34:24;;;;;;;1999.90;999.90;;;6.80;99.90;;;;;;5029464;28;20021;-65
2023/10/17 06:36:58;;;;;;;1999.90;999.90;;;6.80;99.90;;;;;;5017523;28;20033;-65
2023/10/17 06:39:26;;;;;;;1999.90;999.90;;;6.80;99.90;;;;;;5026159;28;20084;-69
2023/10/17 06:41:56;;;;;;;1999.90;999.90;;;6.80;99.90;;;;;;5024029;28;20032;-84
2023/10/17 06:44:22;;;;;;;1999.90;999.90;;;6.80;99.90;;;;;;5013443;28;20037;-64
2023/10/17 06:54:41;;;;;;;1999.90;999.90;;;6.90;99.90;;;;;;5025397;28;20033;-65
2023/10/17 06:57:19;;;;;;;1999.90;999.90;;;6.90;99.90;;;;;;5028199;28;20104;-65
2023/10/17 06:59:50;;;;;;;1999.90;999.90;;;7.00;99.90;;;;;;5020604;28;20033;-66
2023/10/17 07:02:31;;;;;;;1999.90;999.90;;;7.00;99.90;;;;;;5028331;28;20124;-65
2023/10/17 07:05:01;;;;;;;1999.90;999.90;;;7.10;99.90;;;;;;5027642;28;20328;-65
2023/10/17 07:08:01;;;;;;;1999.90;999.90;;;7.70;99.90;;;;;;5023399;28;20026;-65
2023/10/17 07:13:27;;;;;;;1999.90;999.90;;;9.20;99.90;;;;;;5029922;28;20468;-65
2023/10/17 07:15:54;;;;;;;1999.90;999.90;;;9.60;99.90;;;;;;5020559;28;20021;-87
2023/10/17 07:23:42;;;;;;;1999.90;999.90;;;10.80;99.90;;;;;;5029904;28;20044;-65
2023/10/17 07:26:35;;;;;;;1999.90;999.90;;;11.40;99.90;;;;;;5027692;28;20022;-65
2023/10/17 07:29:05;;;;;;;1999.90;999.90;;;11.70;99.90;;;;;;5022683;28;20021;-65
2023/10/17 07:31:32;;;;;;;1999.90;999.90;;;11.70;99.90;;;;;;5024672;28;20064;-85
2023/10/17 07:36:32;;;;;;;1999.90;999.90;;;11.40;99.90;;;;;;5025325;28;20022;-83
2023/10/17 07:38:58;;;;;;;1999.90;999.90;;;11.20;99.90;;;;;;5029893;28;20325;-84
2023/10/17 07:41:36;;;;;;;1999.90;999.90;;;11.20;99.90;;;;;;5032439;28;20032;-65
2023/10/17 07:44:13;;;;;;;1999.90;999.90;;;11.10;99.90;;;;;;5025787;28;20337;-65
2023/10/17 07:46:38;;;;;;;1999.90;999.90;;;11.20;99.90;;;;;;5026254;28;20017;-66
2023/10/17 07:49:04;;;;;;;1999.90;999.90;;;11.40;99.90;;;;;;5018324;28;20051;-66
2023/10/17 07:51:31;;;;;;;1999.90;999.90;;;11.50;99.90;;;;;;5033796;28;20022;-65
2023/10/17 07:53:57;;;;;;;1999.90;999.90;;;11.60;99.90;;;;;;5026621;28;20029;-65
2023/10/17 07:56:26;;;;;;;1999.90;999.90;;;11.60;99.90;;;;;;5032126;28;20040;-66
2023/10/17 07:59:04;;;;;;;1999.90;999.90;;;11.80;99.90;;;;;;5023838;28;20163;-65
2023/10/17 08:01:42;;;;;;;1999.90;999.90;;;11.70;99.90;;;;;;5021627;28;20022;-64
2023/10/17 08:04:30;;;;;;;1999.90;999.90;;;11.40;99.90;;;;;;5024515;28;20045;-65
2023/10/17 08:06:56;;;;;;;1999.90;999.90;;;11.20;99.90;;;;;;5034296;28;20025;-64
2023/10/17 08:11:52;;;;;;;1999.90;999.90;;;11.20;99.90;;;;;;5029882;28;20760;-65
2023/10/17 08:14:40;;;;;;;1999.90;999.90;;;11.40;99.90;;;;;;5036602;28;20355;-64
2023/10/17 08:17:11;;;;;;;1999.90;999.90;;;11.60;99.90;;;;;;5036879;28;20071;-64
2023/10/17 08:20:00;;;;;;;1999.90;999.90;;;11.70;99.90;;;;;;5032771;28;20021;-64
2023/10/17 08:22:53;;;;;;;1999.90;999.90;;;11.80;99.90;;;;;;5032880;28;20037;-64
2023/10/17 08:25:14;;;;;;;1999.90;999.90;;;12.00;99.90;;;;;;5033821;28;20379;-66
2023/10/17 08:30:23;;;;;;;1999.90;999.90;;;13.00;99.90;;;;;;5029659;28;20029;-64
2023/10/17 08:33:09;;;;;;;1999.90;999.90;;;13.20;99.90;;;;;;5028972;28;20468;-64
2023/10/17 08:35:51;;;;;;;1999.90;999.90;;;13.20;99.90;;;;;;5023007;28;20049;-64
2023/10/17 08:38:17;;;;;;;1999.90;999.90;;;13.20;99.90;;;;;;5015116;28;20036;-65
2023/10/17 08:40:43;;;;;;;1999.90;999.90;;;12.80;99.90;;;;;;5038175;28;20034;-64
2023/10/17 08:43:11;;;;;;;1999.90;999.90;;;12.50;99.90;;;;;;5035695;28;20425;-64
2023/10/17 08:45:39;;;;;;;1999.90;999.90;;;12.20;99.90;;;;;;5048612;28;20473;-64
2023/10/17 08:48:06;;;;;;;1999.90;999.90;;;12.20;99.90;;;;;;5027477;28;20045;-64
2023/10/17 08:50:41;;;;;;;;;;;12.10;99.90;;;;;;5016135;28;20028;-64
2023/10/17 08:53:13;;;;;;;1999.90;999.90;;;12.10;99.90;;;;;;5027669;28;19905;-64
2023/10/17 08:55:40;;;;;;;1999.90;999.90;;;12.10;99.90;;;;;;5038674;28;20033;-64
2023/10/17 08:58:07;;;;;;;1999.90;999.90;;;12.10;99.90;;;;;;5025651;28;20412;-64
2023/10/17 09:03:37;;;;;;;1999.90;999.90;;;12.10;99.90;;;;;;5035415;28;20053;-64
2023/10/17 09:09:30;;;;;;;1999.90;999.90;;;12.10;99.90;;;;;;5022400;28;20409;-65
2023/10/17 09:11:30;;;;;;;1999.90;999.90;;;12.30;99.90;;;;;;5017110;28;20041;-65
2023/10/17 09:14:24;;;;;;;1999.90;999.90;;;12.40;99.90;;;;;;5023362;28;20384;-64
2023/10/17 09:19:50;;;;;;;1999.90;999.90;;;12.10;99.90;;;;;;5033756;28;20034;-65
2023/10/17 09:22:36;;;;;;;1999.90;999.90;;;12.20;99.90;;;;;;5030515;28;20017;-65
2023/10/17 09:25:15;;;;;;;1999.90;999.90;;;12.30;99.90;;;;;;5030184;28;20057;-81
2023/10/17 09:27:41;;;;;;;1999.90;999.90;;;12.20;99.90;;;;;;5024657;28;20097;-65
2023/10/17 09:30:11;;;;;;;1999.90;999.90;;;12.00;99.90;;;;;;5017679;28;20793;-65
2023/10/17 09:32:40;;;;;;;1999.90;999.90;;;12.00;99.90;;;;;;5032765;28;20024;-66
2023/10/17 09:35:16;;;;;;;1999.90;999.90;;;11.90;99.90;;;;;;5025482;28;20485;-65
2023/10/17 09:37:46;;;;;;;1999.90;999.90;;;11.90;99.90;;;;;;5032471;28;20105;-66
2023/10/17 09:40:14;;;;;;;1999.90;999.90;;;11.90;99.90;;;;;;5024521;28;20025;-65
2023/10/17 09:42:45;;;;;;;1999.90;999.90;;;11.90;99.90;;;;;;5027675;28;20061;-65
2023/10/17 09:45:13;;;;;;;1999.90;999.90;;;11.80;99.90;;;;;;5021866;28;20442;-65
2023/10/17 09:47:44;;;;;;;1999.90;999.90;;;11.70;99.90;;;;;;5027186;28;20034;-82
2023/10/17 09:50:20;;;;;;;1999.90;999.90;;;11.60;99.90;;;;;;5029304;28;20045;-65
2023/10/17 09:52:48;;;;;;;1999.90;999.90;;;11.60;99.90;;;;;;5019895;28;20054;-77
2023/10/17 09:55:17;;;;;;;1999.90;999.90;;;11.60;99.90;;;;;;5023985;28;20026;-65
2023/10/17 09:58:00;;;;;;;1999.90;999.90;;;11.60;99.90;;;;;;5024957;28;20025;-65
2023/10/17 10:01:08;;;;;;;1999.90;999.90;;;11.60;99.90;;;;;;5025091;28;20309;-64
2023/10/17 10:03:36;;;;;;;1999.90;999.90;;;11.70;99.90;;;;;;5016962;28;20045;-72
2023/10/17 10:06:25;;;;;;;1999.90;999.90;;;11.70;99.90;;;;;;5028520;28;20025;-65
2023/10/17 10:08:55;;;;;;;1999.90;999.90;;;11.70;99.90;;;;;;5030979;28;20035;-81
2023/10/17 10:11:21;;;;;;;1999.90;999.90;;;11.70;99.90;;;;;;5048910;28;20029;-64
2023/10/17 10:14:08;;;;;;;1999.90;999.90;;;11.80;99.90;;;;;;5043513;28;20040;-66
2023/10/17 10:16:54;;;;;;;1999.90;999.90;;;11.80;99.90;;;;;;5033100;28;20041;-66
2023/10/17 10:19:50;;;;;;;1999.90;999.90;;;11.90;99.90;;;;;;5029296;28;20452;-64
2023/10/17 10:22:16;;;;;;;1999.90;999.90;;;11.90;99.90;;;;;;5017678;28;20044;-65
2023/10/17 10:24:45;;;;;;;1999.90;999.90;;;11.90;99.90;;;;;;5036623;28;20032;-65
2023/10/17 10:29:43;;;;;;;1999.90;999.90;;;12.00;99.90;;;;;;5029167;28;20091;-65
2023/10/17 10:32:28;;;;;;;1999.90;999.90;;;11.90;99.90;;;;;;5029781;28;20022;-65
2023/10/17 10:34:54;;;;;;;1999.90;999.90;;;11.90;99.90;;;;;;5024022;28;20064;-64
2023/10/17 10:37:22;;;;;;;1999.90;999.90;;;11.90;99.90;;;;;;5025715;28;20413;-65
2023/10/17 10:40:12;;;;;;;1999.90;999.90;;;11.90;99.90;;;;;;5028708;28;20025;-82
2023/10/17 10:42:45;;;;;;;1999.90;999.90;;;12.00;99.90;;;;;;5027512;28;20052;-64
2023/10/17 10:45:47;;;;;;;1999.90;999.90;;;12.00;99.90;;;;;;5027558;28;20021;-80
2023/10/17 10:48:14;;;;;;;1999.90;999.90;;;12.10;99.90;;;;;;5030286;28;20141;-64
2023/10/17 10:50:57;;;;;;;1999.90;999.90;;;12.00;99.90;;;;;;5065727;28;20362;-66
2023/10/17 10:53:31;;;;;;;1999.90;999.90;;;12.10;99.90;;;;;;5063476;28;20114;-66
2023/10/17 10:56:02;;;;;;;1999.90;999.90;;;12.10;99.90;;;;;;5053287;28;20412;-81
2023/10/17 10:58:33;;;;;;;1999.90;999.90;;;12.10;99.90;;;;;;5051944;28;20064;-78
2023/10/17 11:01:02;;;;;;;1999.90;999.90;;;12.10;99.90;;;;;;5064434;28;20036;-66
2023/10/17 11:03:30;;;;;;;1999.90;999.90;;;12.10;99.90;;;;;;5061993;28;20017;-67
2023/10/17 11:06:04;;;;;;;1999.90;999.90;;;12.10;99.90;;;;;;5059481;28;20013;-67
2023/10/17 11:08:38;;;;;;;1999.90;999.90;;;12.20;99.90;;;;;;5058763;28;20028;-66
2023/10/17 11:11:05;;;;;;;1999.90;999.90;;;12.30;99.90;;;;;;5063073;28;20036;-67
2023/10/17 11:13:36;;;;;;;1999.90;999.90;;;12.30;99.90;;;;;;5061250;28;20477;-66
2023/10/17 11:16:01;;;;;;;1999.90;999.90;;;12.30;99.90;;;;;;5064149;28;20029;-67
2023/10/17 11:18:28;;;;;;;1999.90;999.90;;;12.20;99.90;;;;;;5057174;28;20025;-66
2023/10/17 11:20:57;;;;;;;1999.90;999.90;;;12.20;99.90;;;;;;5056949;28;20352;-84
2023/10/17 11:23:27;;;;;;;1999.90;999.90;;;12.20;99.90;;;;;;5073588;28;20025;-67
2023/10/17 11:25:54;;;;;;;1999.90;999.90;;;12.30;99.90;;;;;;5072805;28;20132;-67
2023/10/17 11:28:20;;;;;;;;;;;12.30;99.90;;;;;;5077842;28;20024;-67
2023/10/17 11:30:48;;;;;;;1999.90;999.90;;;12.40;99.90;;;;;;5064471;28;19944;-68
2023/10/17 11:33:18;;;;;;;1999.90;999.90;;;12.50;99.90;;;;;;5073763;28;20028;-66
2023/10/17 11:35:50;;;;;;;1999.90;999.90;;;12.50;99.90;;;;;;5063791;28;20048;-66
2023/10/17 11:38:33;;;;;;;1999.90;999.90;;;12.60;99.90;;;;;;5067299;28;20052;-67
2023/10/17 11:41:00;;;;;;;1999.90;999.90;;;12.70;99.90;;;;;;5056624;28;20025;-67
2023/10/17 11:43:28;;;;;;;1999.90;999.90;;;12.60;99.90;;;;;;5071042;28;20044;-67
2023/10/17 11:45:59;;;;;;;1999.90;999.90;;;12.70;99.90;;;;;;5070084;28;20025;-80
2023/10/17 11:48:31;;;;;;;1999.90;999.90;;;12.70;99.90;;;;;;5068209;28;20062;-67
2023/10/17 11:51:16;;;;;;;1999.90;999.90;;;12.80;99.90;;;;;;5058514;28;20017;-77
2023/10/17 11:54:05;;;;;;;1999.90;999.90;;;12.80;99.90;;;;;;5050980;28;20021;-68
2023/10/17 11:56:40;;;;;;;1999.90;999.90;;;12.80;99.90;;;;;;5062655;28;20049;-66
2023/10/17 11:59:17;;;;;;;1999.90;999.90;;;12.90;99.90;;;;;;5069495;28;20351;-66
2023/10/17 12:01:45;;;;;;;1999.90;999.90;;;12.90;99.90;;;;;;5060098;28;20057;-66
2023/10/17 12:04:15;;;;;;;1999.90;999.90;;;13.00;99.90;;;;;;5057263;28;20413;-76
2023/10/17 12:06:44;;;;;;;1999.90;999.90;;;13.10;99.90;;;;;;5050970;28;20444;-66
2023/10/17 12:11:53;;;;;;;1999.90;999.90;;;13.00;99.90;;;;;;5059194;28;20021;-78
2023/10/17 12:14:21;;;;;;;1999.90;999.90;;;13.10;99.90;;;;;;5048311;28;20091;-67
2023/10/17 12:17:00;;;;;;;1999.90;999.90;;;13.20;99.90;;;;;;5055095;28;20029;-67
2023/10/17 12:19:27;;;;;;;1999.90;999.90;;;13.20;99.90;;;;;;5046450;28;20029;-67
2023/10/17 12:21:53;;;;;;;;;;;13.10;99.90;;;;;;5058426;28;20413;-67
2023/10/17 12:24:20;;;;;;;;;;;13.10;99.90;;;;;;5048236;28;19908;-67
2023/10/17 12:26:49;;;;;;;1999.90;999.90;;;13.00;99.90;;;;;;5046831;28;19905;-67
2023/10/17 12:29:16;;;;;;;1999.90;999.90;;;13.10;99.90;;;;;;5052746;28;20435;-67
2023/10/17 12:31:42;;;;;;;1999.90;999.90;;;13.10;99.90;;;;;;5038182;28;20522;-67
2023/10/17 12:34:08;;;;;;;1999.90;999.90;;;13.10;99.90;;;;;;5049550;28;20104;-79
2023/10/17 12:36:37;;;;;;;1999.90;999.90;;;13.10;99.90;;;;;;5045026;28;20030;-67
2023/10/17 12:39:06;;;;;;;1999.90;999.90;;;13.20;99.90;;;;;;5044179;28;20509;-67
2023/10/17 12:41:35;;;;;;;1999.90;999.90;;;13.20;99.90;;;;;;5042860;28;20108;-77
2023/10/17 12:44:01;;;;;;;1999.90;999.90;;;13.30;99.90;;;;;;5054212;28;20494;-67
2023/10/17 12:46:27;;;;;;;1999.90;999.90;;;13.30;99.90;;;;;;5034807;28;20752;-78
2023/10/17 12:48:53;;;;;;;1999.90;999.90;;;13.30;99.90;;;;;;5035046;28;20049;-67
2023/10/17 12:51:21;;;;;;;1999.90;999.90;;;13.30;99.90;;;;;;5045855;28;20024;-79
2023/10/17 12:53:47;;;;;;;1999.90;999.90;;;13.40;99.90;;;;;;5049062;28;20021;-78
2023/10/17 12:56:13;;;;;;;1999.90;999.90;;;13.40;99.90;;;;;;5042740;28;20025;-68
2023/10/17 12:58:40;;;;;;;1999.90;999.90;;;13.40;99.90;;;;;;5050084;28;20246;-67
2023/10/17 13:01:06;;;;;;;1999.90;999.90;;;13.40;99.90;;;;;;5045396;28;20009;-67
2023/10/17 13:03:38;;;;;;;1999.90;999.90;;;13.40;99.90;;;;;;5049119;28;20043;-67
2023/10/17 13:06:06;;;;;;;1999.90;999.90;;;13.50;99.90;;;;;;5046153;28;20036;-68
2023/10/17 13:08:32;;;;;;;1999.90;999.90;;;13.40;99.90;;;;;;5048038;28;20048;-67
2023/10/17 13:10:59;;;;;;;1999.90;999.90;;;13.40;99.90;;;;;;5037601;28;20297;-67
2023/10/17 13:13:25;;;;;;;1999.90;999.90;;;13.40;99.90;;;;;;5041203;28;20028;-67
2023/10/17 13:15:53;;;;;;;1999.90;999.90;;;13.30;99.90;;;;;;5041612;28;20025;-68
2023/10/17 13:18:19;;;;;;;1999.90;999.90;;;13.30;99.90;;;;;;5049304;28;20378;-67
2023/10/17 13:20:53;;;;;;;1999.90;999.90;;;13.40;99.90;;;;;;5047194;28;20053;-67
2023/10/17 13:23:19;;;;;;;1999.90;999.90;;;13.50;99.90;;;;;;5042104;28;20026;-71
2023/10/17 13:25:45;;;;;;;1999.90;999.90;;;13.50;99.90;;;;;;5041640;28;20032;-78
2023/10/17 13:28:11;;;;;;;1999.90;999.90;;;13.60;99.90;;;;;;5036893;28;20029;-67
2023/10/17 13:30:37;;;;;;;1999.90;999.90;;;13.50;99.90;;;;;;5037001;28;20287;-67
2023/10/17 13:33:03;;;;;;;1999.90;999.90;;;13.60;99.90;;;;;;5035163;28;20029;-68
2023/10/17 13:35:30;;;;;;;1999.90;999.90;;;13.50;99.90;;;;;;5039327;28;20025;-67
2023/10/17 13:37:58;;;;;;;1999.90;999.90;;;13.50;99.90;;;;;;5035298;28;20017;-67
2023/10/17 13:40:25;;;;;;;1999.90;999.90;;;13.40;99.90;;;;;;5035279;28;20360;-67
2023/10/17 13:42:54;;;;;;;1999.90;999.90;;;13.40;99.90;;;;;;5035402;28;20045;-67
2023/10/17 13:45:21;;;;;;;1999.90;999.90;;;13.30;99.90;;;;;;5036973;28;20072;-67
2023/10/17 13:47:52;;;;;;;1999.90;999.90;;;13.30;99.90;;;;;;5040192;28;20372;-67
2023/10/17 13:50:21;;;;;;;1999.90;999.90;;;13.20;99.90;;;;;;5047006;28;20095;-67
2023/10/17 13:52:48;;;;;;;1999.90;999.90;;;13.20;99.90;;;;;;5050072;28;20020;-67
2023/10/17 13:55:23;;;;;;;1999.90;999.90;;;13.10;99.90;;;;;;5044074;28;20343;-67
2023/10/17 13:57:49;;;;;;;1999.90;999.90;;;13.00;99.90;;;;;;5044531;28;20431;-75
2023/10/17 14:00:21;;;;;;;1999.90;999.90;;;12.90;99.90;;;;;;5045179;28;20104;-66
2023/10/17 14:02:49;;;;;;;1999.90;999.90;;;12.90;99.90;;;;;;5046317;28;20040;-79
2023/10/17 14:05:19;;;;;;;1999.90;999.90;;;12.90;99.90;;;;;;5046925;28;20029;-67
2023/10/17 14:07:48;;;;;;;1999.90;999.90;;;12.90;99.90;;;;;;5045419;28;20165;-68
2023/10/17 14:10:14;;;;;;;1999.90;999.90;;;13.00;99.90;;;;;;5045477;28;20082;-77
2023/10/17 14:12:41;;;;;;;1999.90;999.90;;;13.10;99.90;;;;;;5052760;28;20040;-67
2023/10/17 14:15:08;;;;;;;1999.90;999.90;;;13.10;99.90;;;;;;5049398;28;20029;-66
2023/10/17 14:17:33;;;;;;;;;;;13.00;99.90;;;;;;5054620;28;20044;-80
2023/10/17 14:20:06;;;;;;;1999.90;999.90;;;13.00;99.90;;;;;;5041180;28;19913;-67
2023/10/17 14:22:44;;;;;;;1999.90;999.90;;;13.00;99.90;;;;;;5046784;28;20035;-68
2023/10/17 14:25:11;;;;;;;1999.90;999.90;;;12.90;99.90;;;;;;5063246;28;20028;-67
2023/10/17 14:27:37;;;;;;;1999.90;999.90;;;12.80;99.90;;;;;;5053716;28;20120;-69
2023/10/17 14:30:05;;;;;;;1999.90;999.90;;;12.80;99.90;;;;;;5055731;28;20120;-67
2023/10/17 14:32:31;;;;;;;1999.90;999.90;;;12.70;99.90;;;;;;5042038;28;20277;-68
2023/10/17 14:34:58;;;;;;;1999.90;999.90;;;12.70;99.90;;;;;;5052932;28;20423;-85
2023/10/17 14:37:25;;;;;;;1999.90;999.90;;;12.60;99.90;;;;;;5048231;28;20301;-67
2023/10/17 14:39:52;;;;;;;1999.90;999.90;;;12.50;99.90;;;;;;5050344;28;20029;-68